Time;durP1;ratioP1;P1;durP2;ratioP2;P2;SDS_P1;SDS_P2;PMS_P1;PMS_P2;Temp;Humidity;BMP_temperature;BMP_pressure;BME280_temperature;BME280_humidity;BME280_pressure;Samples;Min_cycle;Max_cycle;Signal;HPM_P1;HPM_P2
2023/05/08 00:01:15;;;;;;;4.35;0.52;;;13.90;75.40;;;;;;5038419;28;20028;-60
2023/05/08 00:03:42;;;;;;;4.03;0.50;;;14.00;74.10;;;;;;5044090;28;20029;-60
2023/05/08 00:06:10;;;;;;;1.23;0.30;;;14.20;72.90;;;;;;5040647;28;20514;-62
2023/05/08 00:08:38;;;;;;;1.95;0.30;;;14.20;72.30;;;;;;5040594;28;20057;-58
2023/05/08 00:11:05;;;;;;;3.70;0.40;;;14.20;70.60;;;;;;5047211;28;20027;-61
2023/05/08 00:13:33;;;;;;;1.92;0.32;;;14.30;71.20;;;;;;5045444;28;20029;-60
2023/05/08 00:16:00;;;;;;;3.45;0.40;;;14.20;70.70;;;;;;5048157;28;20723;-60
2023/05/08 00:18:28;;;;;;;1.00;0.50;;;14.20;71.00;;;;;;5043997;28;20401;-60
2023/05/08 00:20:55;;;;;;;1.27;0.73;;;14.30;72.20;;;;;;5044979;28;20021;-60
2023/05/08 00:23:23;;;;;;;0.30;0.20;;;14.30;68.90;;;;;;5045649;28;20036;-60
2023/05/08 00:25:50;;;;;;;0.80;0.30;;;14.40;69.50;;;;;;5045172;28;20086;-59
2023/05/08 00:28:18;;;;;;;3.88;0.30;;;14.40;68.50;;;;;;5047306;28;20112;-57
2023/05/08 00:30:45;;;;;;;3.20;0.40;;;14.40;69.10;;;;;;5047685;28;20021;-58
2023/05/08 00:33:12;;;;;;;2.50;0.50;;;14.40;68.80;;;;;;5052476;28;20029;-59
2023/05/08 00:35:41;;;;;;;3.05;0.50;;;14.30;69.30;;;;;;5053391;28;20098;-60
2023/05/08 00:38:10;;;;;;;0.52;0.20;;;14.40;70.80;;;;;;5057824;28;20032;-60
2023/05/08 00:40:37;;;;;;;1.92;0.50;;;14.50;70.20;;;;;;5036294;28;20029;-60
2023/05/08 00:43:05;;;;;;;1.00;0.60;;;14.60;70.30;;;;;;5042342;28;20108;-60
2023/05/08 00:45:36;;;;;;;1.20;0.40;;;14.70;69.30;;;;;;5041891;28;20041;-61
2023/05/08 00:48:04;;;;;;;3.03;1.08;;;14.80;69.90;;;;;;5045559;28;20041;-60
2023/05/08 00:50:33;;;;;;;6.35;0.73;;;14.90;67.70;;;;;;5042934;28;20025;-60
2023/05/08 00:53:02;;;;;;;0.73;0.30;;;14.90;68.50;;;;;;5043237;28;20024;-59
2023/05/08 00:55:31;;;;;;;5.60;0.50;;;15.00;68.30;;;;;;5040025;28;20033;-60
2023/05/08 00:57:59;;;;;;;2.55;0.30;;;15.10;65.70;;;;;;5043200;28;20091;-60
2023/05/08 01:00:26;;;;;;;5.10;0.40;;;15.00;65.90;;;;;;5042306;28;20017;-60
2023/05/08 01:02:54;;;;;;;2.65;0.55;;;14.80;65.70;;;;;;5042587;28;20359;-60
2023/05/08 01:05:21;;;;;;;2.58;0.20;;;14.90;66.80;;;;;;5023536;28;20585;-61
2023/05/08 01:07:50;;;;;;;2.42;0.57;;;15.00;66.90;;;;;;5042997;28;20529;-59
2023/05/08 01:10:17;;;;;;;7.53;0.95;;;15.00;66.40;;;;;;5041916;28;20025;-59
2023/05/08 01:13:03;;;;;;;3.30;0.32;;;15.10;68.30;;;;;;5035407;28;20043;-60
2023/05/08 01:15:37;;;;;;;2.25;0.40;;;15.10;66.20;;;;;;5043013;28;20525;-63
2023/05/08 01:18:47;;;;;;;1.60;0.52;;;15.00;65.20;;;;;;5045627;28;20087;-58
2023/05/08 01:22:00;;;;;;;2.35;0.52;;;15.10;65.00;;;;;;4955709;28;20121;-58
2023/05/08 01:25:04;;;;;;;1.00;0.30;;;15.20;64.80;;;;;;4903370;29;20137;-59
2023/05/08 01:27:40;;;;;;;4.18;0.35;;;15.30;68.00;;;;;;4967758;28;20034;-59
2023/05/08 01:30:45;;;;;;;0.93;0.50;;;15.40;64.90;;;;;;5027670;28;20041;-59
2023/05/08 01:33:32;;;;;;;1.63;0.50;;;15.50;64.40;;;;;;4977440;28;20117;-59
2023/05/08 01:36:17;;;;;;;0.35;0.20;;;15.60;64.20;;;;;;5013637;28;20119;-59
2023/05/08 01:38:57;;;;;;;8.88;0.77;;;15.70;65.70;;;;;;5017968;28;20086;-60
2023/05/08 01:41:29;;;;;;;2.50;0.40;;;15.90;64.00;;;;;;5042386;28;21438;-59
2023/05/08 01:44:15;;;;;;;0.93;0.30;;;15.90;62.20;;;;;;5024146;28;20132;-59
2023/05/08 01:46:44;;;;;;;10.18;1.08;;;15.90;63.30;;;;;;5044877;28;20030;-58
2023/05/08 01:49:48;;;;;;;6.47;0.60;;;15.90;64.40;;;;;;5040871;28;20116;-60
2023/05/08 01:52:24;;;;;;;3.70;1.30;;;15.90;62.90;;;;;;5045079;28;20466;-59
2023/05/08 01:55:13;;;;;;;3.03;0.85;;;16.10;63.90;;;;;;5047268;28;20039;-59
2023/05/08 01:57:47;;;;;;;4.57;0.60;;;16.20;63.30;;;;;;5040205;28;20104;-60
2023/05/08 02:00:18;;;;;;;3.70;0.30;;;16.20;63.70;;;;;;5045322;28;20025;-60
2023/05/08 02:02:47;;;;;;;0.35;0.25;;;16.20;62.90;;;;;;5043625;28;20025;-59
2023/05/08 02:05:15;;;;;;;0.50;0.40;;;16.20;62.10;;;;;;5045987;28;20051;-59
2023/05/08 02:07:45;;;;;;;5.57;0.77;;;16.00;62.00;;;;;;5036258;28;20061;-59
2023/05/08 02:10:14;;;;;;;1.60;0.40;;;16.10;63.20;;;;;;5048735;28;20497;-62
2023/05/08 02:12:44;;;;;;;0.80;0.45;;;16.30;63.00;;;;;;5045503;28;20569;-60
2023/05/08 02:15:15;;;;;;;0.30;0.30;;;16.50;60.90;;;;;;5045479;28;20099;-64
2023/05/08 02:17:53;;;;;;;3.47;0.35;;;16.60;60.30;;;;;;5040707;28;20121;-60
2023/05/08 02:20:21;;;;;;;0.77;0.40;;;16.80;62.10;;;;;;5033725;28;20072;-61
2023/05/08 02:22:51;;;;;;;2.90;0.50;;;16.70;61.20;;;;;;5044467;28;20445;-60
2023/05/08 02:25:19;;;;;;;2.95;0.30;;;16.50;60.70;;;;;;5023820;28;20038;-61
2023/05/08 02:27:50;;;;;;;1.25;0.50;;;16.40;60.80;;;;;;5049851;28;20099;-61
2023/05/08 02:30:18;;;;;;;5.85;0.90;;;16.50;62.20;;;;;;5055290;28;20021;-61
2023/05/08 02:32:47;;;;;;;0.73;0.30;;;16.80;62.80;;;;;;5048670;28;20017;-63
2023/05/08 02:35:19;;;;;;;0.85;0.45;;;16.80;61.20;;;;;;5043075;28;20022;-62
2023/05/08 02:37:53;;;;;;;4.82;1.05;;;16.80;63.10;;;;;;5021534;28;20018;-63
2023/05/08 02:40:24;;;;;;;1.10;0.30;;;16.90;62.00;;;;;;5046143;28;20017;-61
2023/05/08 02:42:51;;;;;;;0.17;0.17;;;16.80;63.60;;;;;;5046996;28;20021;-61
2023/05/08 02:45:19;;;;;;;3.00;0.57;;;16.60;62.50;;;;;;5037765;28;20087;-62
2023/05/08 02:47:59;;;;;;;1.00;0.20;;;16.50;62.60;;;;;;5030865;28;20044;-62
2023/05/08 02:50:47;;;;;;;4.35;0.30;;;16.40;63.50;;;;;;5035500;28;20021;-61
2023/05/08 02:53:23;;;;;;;1.25;0.35;;;16.50;61.30;;;;;;5043338;28;20495;-60
2023/05/08 02:55:57;;;;;;;0.28;0.25;;;16.30;62.60;;;;;;5042279;28;20044;-61
2023/05/08 02:58:30;;;;;;;3.50;0.52;;;16.40;62.20;;;;;;5045924;28;20029;-62
2023/05/08 03:01:18;;;;;;;0.98;0.38;;;16.50;63.30;;;;;;5038116;28;20040;-61
2023/05/08 03:03:52;;;;;;;1.02;0.40;;;16.30;61.60;;;;;;5044212;28;20021;-61
2023/05/08 03:06:22;;;;;;;1.08;0.30;;;16.30;62.20;;;;;;5043602;28;20079;-61
2023/05/08 03:08:51;;;;;;;1.55;0.32;;;16.20;61.80;;;;;;5037509;28;20085;-61
2023/05/08 03:11:23;;;;;;;0.43;0.30;;;16.30;61.80;;;;;;5041297;28;20483;-61
2023/05/08 03:13:56;;;;;;;0.25;0.20;;;16.30;60.50;;;;;;5043011;28;20541;-62
2023/05/08 03:16:27;;;;;;;2.17;0.30;;;16.30;60.10;;;;;;5026242;28;20052;-62
2023/05/08 03:19:01;;;;;;;1.40;0.38;;;16.40;62.40;;;;;;5033690;28;20086;-62
2023/05/08 03:21:30;;;;;;;1.10;0.60;;;16.60;62.60;;;;;;5037964;28;20021;-60
2023/05/08 03:24:01;;;;;;;0.93;0.50;;;16.80;60.50;;;;;;5042204;28;20312;-60
2023/05/08 03:26:29;;;;;;;0.88;0.20;;;16.80;60.20;;;;;;5046061;28;20132;-60
2023/05/08 03:28:57;;;;;;;0.95;0.30;;;16.90;60.70;;;;;;5038949;28;20013;-60
2023/05/08 03:31:26;;;;;;;2.47;0.40;;;16.90;60.70;;;;;;5029716;28;20033;-60
2023/05/08 03:33:55;;;;;;;1.13;0.35;;;17.10;59.90;;;;;;5031388;28;20029;-56
2023/05/08 03:36:25;;;;;;;1.08;0.20;;;17.20;61.20;;;;;;5045443;28;20036;-58
2023/05/08 03:38:53;;;;;;;4.13;0.73;;;17.20;59.30;;;;;;5033196;28;20044;-55
2023/05/08 03:41:21;;;;;;;2.80;0.32;;;17.10;58.30;;;;;;5042217;28;20371;-55
2023/05/08 03:43:49;;;;;;;4.28;0.95;;;16.90;58.40;;;;;;5040331;28;20040;-58
2023/05/08 03:46:17;;;;;;;3.10;0.70;;;16.90;59.40;;;;;;5034131;28;20109;-56
2023/05/08 03:48:46;;;;;;;1.35;0.85;;;16.80;57.90;;;;;;5040375;28;20046;-60
2023/05/08 03:51:15;;;;;;;4.25;0.40;;;16.80;57.00;;;;;;5042734;28;20048;-59
2023/05/08 03:53:42;;;;;;;23.52;1.27;;;16.80;59.00;;;;;;5039819;28;20025;-59
2023/05/08 03:56:10;;;;;;;1.83;0.30;;;17.00;59.00;;;;;;5035017;28;20080;-62
2023/05/08 03:59:30;;;;;;;1.88;0.55;;;17.10;59.00;;;;;;5012469;28;20028;-59
2023/05/08 04:02:43;;;;;;;5.85;0.57;;;17.20;58.90;;;;;;4986459;28;20053;-58
2023/05/08 04:05:23;;;;;;;0.88;0.30;;;17.30;58.30;;;;;;5012086;28;20037;-61
2023/05/08 04:08:07;;;;;;;2.35;0.60;;;17.30;58.00;;;;;;5015238;28;20081;-59
2023/05/08 04:10:45;;;;;;;1.65;0.32;;;17.20;57.40;;;;;;5042079;28;20539;-59
2023/05/08 04:13:27;;;;;;;2.20;0.35;;;17.30;58.30;;;;;;5035386;28;20017;-59
2023/05/08 04:16:27;;;;;;;2.90;0.35;;;17.30;58.40;;;;;;5041198;28;20029;-57
2023/05/08 04:19:26;;;;;;;2.72;0.40;;;17.50;60.20;;;;;;5022632;28;20043;-59
2023/05/08 04:22:05;;;;;;;5.50;0.90;;;17.80;58.70;;;;;;5043274;28;20036;-59
2023/05/08 04:24:36;;;;;;;2.97;0.73;;;18.00;58.20;;;;;;5025721;28;20043;-59
2023/05/08 04:27:05;;;;;;;6.57;0.63;;;18.10;57.50;;;;;;5042142;28;20024;-59
2023/05/08 04:29:33;;;;;;;0.75;0.40;;;18.30;57.20;;;;;;5038942;28;20030;-60
2023/05/08 04:32:03;;;;;;;2.15;0.63;;;18.10;56.20;;;;;;5018333;28;20060;-59
2023/05/08 04:34:31;;;;;;;2.22;0.52;;;17.90;56.40;;;;;;5032279;28;20029;-59
2023/05/08 04:36:59;;;;;;;3.92;0.70;;;17.70;57.10;;;;;;5043602;28;20032;-58
2023/05/08 04:39:27;;;;;;;3.63;0.73;;;17.40;58.10;;;;;;5039912;28;20017;-58
2023/05/08 04:42:01;;;;;;;3.30;0.45;;;17.20;57.50;;;;;;5039285;28;20112;-59
2023/05/08 04:44:29;;;;;;;7.32;1.17;;;17.00;57.80;;;;;;5039836;28;20047;-58
2023/05/08 04:46:56;;;;;;;1.60;0.45;;;16.70;58.70;;;;;;5042460;28;20108;-57
2023/05/08 04:49:24;;;;;;;1.63;0.50;;;16.60;59.60;;;;;;5029171;28;20040;-59
2023/05/08 04:51:51;;;;;;;1.92;0.50;;;16.40;59.40;;;;;;5039525;28;20086;-59
2023/05/08 04:54:19;;;;;;;2.13;0.35;;;16.40;59.90;;;;;;5034492;28;20014;-59
2023/05/08 04:56:46;;;;;;;17.35;0.88;;;16.30;59.90;;;;;;5044293;28;20026;-59
2023/05/08 04:59:14;;;;;;;2.65;0.50;;;16.30;60.60;;;;;;5042203;28;20032;-58
2023/05/08 05:01:41;;;;;;;2.90;0.60;;;16.20;61.10;;;;;;5033184;28;20091;-59
2023/05/08 05:04:09;;;;;;;2.45;0.45;;;16.20;60.80;;;;;;5044926;28;20131;-58
2023/05/08 05:06:36;;;;;;;1.02;0.30;;;16.30;61.90;;;;;;5041624;28;20024;-57
2023/05/08 05:09:04;;;;;;;1.98;0.30;;;16.30;60.40;;;;;;5032054;28;20037;-59
2023/05/08 05:11:31;;;;;;;4.28;0.68;;;16.30;61.00;;;;;;5036071;28;20104;-59
2023/05/08 05:13:59;;;;;;;1.08;0.40;;;16.30;61.10;;;;;;5043175;28;20366;-54
2023/05/08 05:16:27;;;;;;;11.27;0.57;;;16.30;60.70;;;;;;5045149;28;20367;-57
2023/05/08 05:18:54;;;;;;;2.92;0.45;;;16.30;61.70;;;;;;5032283;28;20022;-58
2023/05/08 05:21:22;;;;;;;5.25;0.55;;;16.40;60.30;;;;;;5043515;28;20036;-58
2023/05/08 05:23:49;;;;;;;1.73;0.35;;;16.40;61.00;;;;;;5039063;28;20513;-55
2023/05/08 05:26:17;;;;;;;1.02;0.20;;;16.40;61.70;;;;;;5038867;28;20060;-54
2023/05/08 05:28:44;;;;;;;1.35;0.45;;;16.50;62.40;;;;;;5037435;28;20021;-57
2023/05/08 05:31:12;;;;;;;0.88;0.30;;;16.60;61.00;;;;;;5042497;28;20486;-58
2023/05/08 05:33:39;;;;;;;6.47;0.43;;;16.60;60.50;;;;;;5059648;28;20041;-57
2023/05/08 05:36:07;;;;;;;4.00;0.95;;;16.60;61.00;;;;;;5047247;28;20024;-57
2023/05/08 05:38:34;;;;;;;2.28;0.40;;;16.60;60.50;;;;;;5050822;28;20017;-58
2023/05/08 05:41:02;;;;;;;3.97;0.50;;;16.60;60.80;;;;;;5044050;28;20025;-55
2023/05/08 05:43:29;;;;;;;6.70;0.80;;;16.50;61.00;;;;;;5030535;28;20029;-59
2023/05/08 05:46:04;;;;;;;1.77;0.40;;;16.50;61.10;;;;;;5042657;28;20045;-56
2023/05/08 05:48:32;;;;;;;4.55;0.30;;;16.40;61.30;;;;;;5044270;28;20037;-55
2023/05/08 05:51:00;;;;;;;12.48;0.70;;;16.40;61.50;;;;;;5036139;28;20029;-57
2023/05/08 05:53:27;;;;;;;1.40;0.25;;;16.30;62.30;;;;;;5044895;28;20032;-57
2023/05/08 05:55:55;;;;;;;0.85;0.30;;;16.30;62.10;;;;;;5046570;28;20029;-57
2023/05/08 05:58:22;;;;;;;1.50;0.40;;;16.30;62.60;;;;;;5037624;28;20496;-57
2023/05/08 06:00:50;;;;;;;0.75;0.20;;;16.20;63.10;;;;;;5023232;28;20036;-55
2023/05/08 06:03:17;;;;;;;2.80;0.28;;;16.20;62.60;;;;;;5061705;28;20024;-56
2023/05/08 06:05:47;;;;;;;7.70;0.55;;;16.20;63.40;;;;;;5038214;28;20068;-56
2023/05/08 06:08:16;;;;;;;1.45;0.35;;;16.10;63.80;;;;;;5059052;28;20499;-55
2023/05/08 06:10:44;;;;;;;2.15;0.30;;;16.00;63.00;;;;;;5047884;28;20025;-57
2023/05/08 06:13:11;;;;;;;3.88;0.60;;;15.90;63.70;;;;;;5043483;28;20107;-59
2023/05/08 06:15:39;;;;;;;2.92;0.47;;;15.90;63.80;;;;;;5043111;28;20053;-56
2023/05/08 06:18:06;;;;;;;9.38;0.65;;;15.90;64.70;;;;;;5029601;28;20033;-57
2023/05/08 06:20:36;;;;;;;5.85;0.60;;;15.80;64.20;;;;;;5048785;28;20359;-56
2023/05/08 06:23:03;;;;;;;8.35;0.75;;;15.80;64.40;;;;;;5022252;28;20418;-56
2023/05/08 06:25:31;;;;;;;1.17;0.43;;;15.80;64.00;;;;;;5044588;28;20591;-55
2023/05/08 06:27:58;;;;;;;13.27;2.72;;;15.80;65.90;;;;;;5043065;28;20057;-56
2023/05/08 06:30:26;;;;;;;3.10;0.98;;;15.70;65.80;;;;;;5035269;28;20040;-57
2023/05/08 06:32:53;;;;;;;3.78;0.60;;;15.60;67.00;;;;;;5046342;28;20100;-57
2023/05/08 06:35:21;;;;;;;6.10;0.65;;;15.60;66.70;;;;;;5031967;28;20079;-57
2023/05/08 06:37:48;;;;;;;5.38;0.65;;;15.60;66.70;;;;;;5030794;28;20498;-56
2023/05/08 06:40:16;;;;;;;11.30;1.48;;;15.50;66.60;;;;;;5045189;28;20048;-56
2023/05/08 06:42:43;;;;;;;6.28;0.55;;;15.40;67.20;;;;;;5044483;28;20052;-56
2023/05/08 06:45:11;;;;;;;1.67;0.60;;;15.40;68.70;;;;;;5043231;28;20037;-59
2023/05/08 06:47:38;;;;;;;5.45;0.60;;;15.30;68.10;;;;;;5035957;28;20037;-58
2023/05/08 06:50:06;;;;;;;6.93;1.55;;;15.20;69.90;;;;;;5037082;28;20100;-58
2023/05/08 06:52:34;;;;;;;3.17;0.40;;;15.10;70.30;;;;;;5046523;28;20017;-53
2023/05/08 06:55:01;;;;;;;0.68;0.40;;;15.00;70.70;;;;;;5037652;28;20078;-56
2023/05/08 06:57:29;;;;;;;6.63;0.60;;;14.90;71.90;;;;;;5044473;28;20104;-57
2023/05/08 06:59:57;;;;;;;7.43;0.38;;;14.80;73.20;;;;;;5047813;28;20024;-56
2023/05/08 07:02:24;;;;;;;4.50;0.50;;;14.60;73.80;;;;;;5033880;28;20049;-56
2023/05/08 07:04:52;;;;;;;8.45;0.63;;;14.50;74.90;;;;;;5028248;28;20041;-53
2023/05/08 07:07:19;;;;;;;6.32;0.60;;;14.40;75.30;;;;;;5041473;28;20058;-57
2023/05/08 07:09:46;;;;;;;5.50;0.60;;;14.40;75.30;;;;;;5046518;28;20024;-55
2023/05/08 07:12:15;;;;;;;8.00;0.80;;;14.30;76.20;;;;;;5046440;28;20025;-58
2023/05/08 07:14:43;;;;;;;10.27;1.00;;;14.20;76.50;;;;;;5033962;28;20037;-58
2023/05/08 07:17:10;;;;;;;8.90;0.75;;;14.10;77.00;;;;;;5055610;28;20017;-61
2023/05/08 07:19:38;;;;;;;5.47;0.82;;;14.00;79.00;;;;;;5049158;28;20036;-57
2023/05/08 07:22:05;;;;;;;4.13;0.73;;;13.80;80.00;;;;;;5043427;28;20021;-56
2023/05/08 07:24:33;;;;;;;9.68;2.33;;;13.60;81.90;;;;;;5034707;28;20073;-54
2023/05/08 07:27:01;;;;;;;11.13;1.38;;;13.50;82.80;;;;;;5048390;28;20024;-57
2023/05/08 07:29:28;;;;;;;11.40;1.25;;;13.40;83.50;;;;;;5047903;28;20032;-56
2023/05/08 07:31:55;;;;;;;5.25;0.80;;;13.40;85.00;;;;;;5030343;28;20053;-55
2023/05/08 07:34:23;;;;;;;8.32;1.02;;;13.30;85.90;;;;;;5048307;28;20115;-57
2023/05/08 07:36:50;;;;;;;7.45;1.55;;;13.20;88.00;;;;;;5040819;28;20033;-55
2023/05/08 07:39:18;;;;;;;6.40;1.00;;;13.10;89.60;;;;;;5031144;28;20461;-57
2023/05/08 07:41:45;;;;;;;9.90;0.75;;;13.00;90.60;;;;;;5041907;28;20536;-58
2023/05/08 07:44:13;;;;;;;5.90;1.15;;;12.90;91.80;;;;;;5026505;28;20094;-57
2023/05/08 07:46:40;;;;;;;1.48;0.60;;;12.80;92.80;;;;;;5037262;28;20024;-56
2023/05/08 07:49:08;;;;;;;1.50;0.60;;;12.80;94.00;;;;;;5038139;28;20129;-56
2023/05/08 07:51:35;;;;;;;4.32;0.50;;;12.90;94.00;;;;;;5011917;28;20026;-53
2023/05/08 07:54:02;;;;;;;2.30;0.93;;;13.00;94.50;;;;;;5047976;28;20033;-51
2023/05/08 07:56:30;;;;;;;2.30;0.40;;;13.00;94.60;;;;;;5049046;28;20049;-54
2023/05/08 07:58:58;;;;;;;2.30;0.65;;;13.10;95.00;;;;;;5040942;28;20097;-52
2023/05/08 08:01:26;;;;;;;2.22;0.75;;;13.10;94.10;;;;;;5034142;28;20108;-60
2023/05/08 08:03:53;;;;;;;1.88;0.85;;;13.10;94.20;;;;;;5036549;28;20035;-59
2023/05/08 08:06:21;;;;;;;2.15;0.50;;;13.10;94.20;;;;;;5043518;28;20029;-60
2023/05/08 08:08:48;;;;;;;1.90;0.70;;;13.20;94.50;;;;;;5049330;28;20021;-59
2023/05/08 08:11:16;;;;;;;2.30;0.70;;;13.10;94.80;;;;;;5018885;28;20026;-62
2023/05/08 08:13:43;;;;;;;5.10;0.77;;;13.10;94.30;;;;;;5030884;28;20192;-61
2023/05/08 08:16:11;;;;;;;2.47;0.85;;;13.00;95.10;;;;;;5030643;28;20029;-61
2023/05/08 08:18:38;;;;;;;8.90;1.55;;;13.00;94.90;;;;;;5027952;28;20240;-61
2023/05/08 08:21:09;;;;;;;8.55;0.90;;;12.90;95.40;;;;;;5034565;28;20028;-60
2023/05/08 08:23:36;;;;;;;6.68;0.82;;;12.90;95.80;;;;;;5042884;28;20061;-61
2023/05/08 08:26:04;;;;;;;9.30;1.52;;;12.80;96.70;;;;;;5039777;28;20452;-61
2023/05/08 08:28:31;;;;;;;4.90;0.80;;;12.60;97.00;;;;;;5046221;28;20020;-60
2023/05/08 08:30:59;;;;;;;1.85;0.70;;;12.60;97.00;;;;;;5042292;28;20033;-61
2023/05/08 08:33:28;;;;;;;2.03;0.80;;;12.40;97.50;;;;;;5028153;28;20021;-61
2023/05/08 08:35:56;;;;;;;2.42;0.70;;;12.40;98.10;;;;;;5045257;28;20485;-60
2023/05/08 08:38:23;;;;;;;0.85;0.55;;;12.30;98.40;;;;;;5039849;28;20029;-61
2023/05/08 08:40:52;;;;;;;1.40;0.60;;;12.20;99.00;;;;;;5041751;28;20041;-61
2023/05/08 08:43:19;;;;;;;2.75;0.50;;;12.10;99.60;;;;;;5026420;28;20119;-61
2023/05/08 08:45:47;;;;;;;2.30;0.55;;;11.90;99.90;;;;;;5042791;28;20041;-61
2023/05/08 08:48:15;;;;;;;1.63;0.40;;;11.80;99.90;;;;;;5036218;28;20129;-61
2023/05/08 08:50:45;;;;;;;2.80;0.80;;;11.70;99.90;;;;;;5024623;28;20033;-61
2023/05/08 08:53:49;;;;;;;3.40;0.40;;;11.70;99.90;;;;;;5045269;28;20064;-61
2023/05/08 08:56:17;;;;;;;2.63;0.70;;;11.80;99.90;;;;;;5049774;28;20109;-62
2023/05/08 08:58:58;;;;;;;4.68;0.88;;;11.80;99.90;;;;;;5020473;28;20028;-62
2023/05/08 09:01:28;;;;;;;5.80;0.85;;;11.70;99.90;;;;;;5046390;28;20040;-61
2023/05/08 09:03:58;;;;;;;7.60;1.60;;;11.70;99.90;;;;;;5042563;28;20040;-60
2023/05/08 09:06:29;;;;;;;11.15;0.90;;;11.70;99.90;;;;;;5047319;28;20029;-61
2023/05/08 09:08:58;;;;;;;9.68;1.35;;;11.80;99.90;;;;;;5039181;28;20025;-61
2023/05/08 09:11:26;;;;;;;10.38;1.45;;;11.80;99.90;;;;;;5028305;28;20786;-61
2023/05/08 09:13:57;;;;;;;7.57;1.70;;;11.80;99.90;;;;;;5047585;28;20033;-60
2023/05/08 09:16:27;;;;;;;19.02;1.45;;;11.70;99.90;;;;;;5035979;28;20041;-60
2023/05/08 09:18:54;;;;;;;8.57;1.70;;;11.50;99.90;;;;;;5037931;28;20393;-55
2023/05/08 09:21:22;;;;;;;13.10;2.20;;;11.50;99.90;;;;;;5039512;28;20449;-61
2023/05/08 09:24:00;;;;;;;6.68;0.95;;;11.40;99.90;;;;;;5036998;28;20017;-60
2023/05/08 09:26:31;;;;;;;9.75;1.40;;;11.40;99.90;;;;;;5042272;28;20083;-61
2023/05/08 09:29:14;;;;;;;8.98;1.80;;;11.30;99.90;;;;;;5038674;28;20123;-60
2023/05/08 09:31:47;;;;;;;12.02;1.20;;;11.30;99.90;;;;;;5021782;28;20029;-60
2023/05/08 09:34:28;;;;;;;10.82;1.30;;;11.30;99.90;;;;;;5043377;28;20112;-60
2023/05/08 09:37:05;;;;;;;14.85;2.00;;;11.20;99.90;;;;;;5046307;28;20036;-60
2023/05/08 09:39:33;;;;;;;12.23;2.25;;;11.20;99.90;;;;;;5030620;28;20033;-61
2023/05/08 09:42:05;;;;;;;9.88;2.00;;;11.20;99.90;;;;;;5045585;28;20033;-60
2023/05/08 09:44:53;;;;;;;10.40;1.67;;;11.20;99.90;;;;;;5046687;28;20037;-60
2023/05/08 09:47:22;;;;;;;12.40;1.33;;;11.20;99.90;;;;;;5035893;28;20718;-60
2023/05/08 09:50:06;;;;;;;9.75;1.40;;;11.20;99.90;;;;;;5048935;28;20028;-60
2023/05/08 09:52:35;;;;;;;8.27;1.10;;;11.20;99.90;;;;;;5030694;28;20083;-60
2023/05/08 09:55:10;;;;;;;11.50;1.05;;;11.20;99.90;;;;;;5046075;28;20017;-61
2023/05/08 09:57:40;;;;;;;11.27;1.48;;;11.20;99.90;;;;;;5045271;28;20028;-61
2023/05/08 10:00:14;;;;;;;7.03;0.93;;;11.10;99.90;;;;;;5042297;28;20032;-60
2023/05/08 10:02:53;;;;;;;10.23;0.95;;;11.10;99.90;;;;;;5025144;28;20455;-61
2023/05/08 10:05:30;;;;;;;26.30;1.73;;;11.20;99.90;;;;;;5042256;28;20163;-60
2023/05/08 10:08:19;;;;;;;3.90;1.63;;;11.10;99.90;;;;;;5047400;28;20025;-62
2023/05/08 10:10:46;;;;;;;9.23;0.93;;;11.10;99.90;;;;;;5022468;28;20056;-61
2023/05/08 10:13:14;;;;;;;2.00;0.70;;;11.00;99.90;;;;;;5045832;28;20021;-60
2023/05/08 10:15:47;;;;;;;11.52;1.48;;;11.00;99.90;;;;;;5041885;28;20037;-61
2023/05/08 10:18:17;;;;;;;1.95;0.50;;;10.90;99.90;;;;;;5022877;28;20045;-61
2023/05/08 10:20:48;;;;;;;11.70;1.30;;;10.90;99.90;;;;;;5019260;28;20037;-60
2023/05/08 10:23:17;;;;;;;6.20;0.73;;;10.90;99.90;;;;;;5036734;28;20022;-61
2023/05/08 10:25:47;;;;;;;13.40;1.60;;;10.80;99.90;;;;;;5046179;28;20044;-61
2023/05/08 10:28:36;;;;;;;8.85;1.60;;;10.70;99.90;;;;;;5042048;28;20032;-60
2023/05/08 10:31:06;;;;;;;14.25;1.85;;;10.60;99.90;;;;;;5024357;28;20025;-61
2023/05/08 10:33:35;;;;;;;6.53;2.53;;;10.40;99.90;;;;;;5027622;28;20037;-61
2023/05/08 10:36:04;;;;;;;12.45;1.27;;;10.40;99.90;;;;;;5046619;28;20048;-60
2023/05/08 10:38:32;;;;;;;7.93;0.88;;;10.40;99.90;;;;;;5034971;28;20669;-60
2023/05/08 10:41:03;;;;;;;9.85;1.15;;;10.40;99.90;;;;;;5038061;28;20036;-60
2023/05/08 10:43:31;;;;;;;7.10;1.00;;;10.30;99.90;;;;;;5033796;28;20104;-61
2023/05/08 10:46:03;;;;;;;7.68;1.75;;;10.30;99.90;;;;;;5017594;28;20805;-61
2023/05/08 10:48:58;;;;;;;18.38;2.45;;;10.40;99.90;;;;;;5034147;28;20097;-61
2023/05/08 10:51:41;;;;;;;6.53;1.33;;;10.40;99.90;;;;;;5029452;28;20375;-61
2023/05/08 10:54:38;;;;;;;3.35;0.73;;;10.20;99.90;;;;;;5036088;28;20087;-61
2023/05/08 10:57:12;;;;;;;1.20;0.63;;;9.90;99.90;;;;;;5033704;28;20490;-61
2023/05/08 10:59:45;;;;;;;2.38;0.95;;;9.70;99.90;;;;;;5040262;28;20355;-61
2023/05/08 11:02:14;;;;;;;1.80;1.02;;;9.60;99.90;;;;;;5036259;28;20036;-61
2023/05/08 11:04:42;;;;;;;4.32;1.85;;;9.50;99.90;;;;;;5013541;28;20474;-61
2023/05/08 11:07:10;;;;;;;1.27;0.70;;;9.40;99.90;;;;;;5016061;28;20056;-61
2023/05/08 11:09:47;;;;;;;3.95;0.82;;;9.20;99.90;;;;;;5030328;28;20108;-61
2023/05/08 11:12:28;;;;;;;2.08;0.85;;;9.10;99.90;;;;;;5039710;28;20029;-60
2023/05/08 11:15:06;;;;;;;1.15;0.75;;;9.00;99.90;;;;;;5027092;28;20099;-61
2023/05/08 11:17:34;;;;;;;1.52;0.75;;;8.90;99.90;;;;;;5042451;28;20024;-60
2023/05/08 11:20:04;;;;;;;1.85;0.73;;;8.80;99.90;;;;;;5041722;28;20037;-60
2023/05/08 11:22:33;;;;;;;2.53;0.90;;;8.70;99.90;;;;;;5041954;28;20434;-60
2023/05/08 11:25:01;;;;;;;1.35;0.70;;;8.60;99.90;;;;;;5017759;28;20572;-61
2023/05/08 11:27:39;;;;;;;1.25;0.73;;;8.50;99.90;;;;;;5038173;28;20024;-61
2023/05/08 11:30:36;;;;;;;1.17;0.73;;;8.50;99.90;;;;;;5041309;28;20108;-60
2023/05/08 11:33:03;;;;;;;2.08;0.98;;;8.50;99.90;;;;;;5045194;28;20536;-61
2023/05/08 11:35:46;;;;;;;2.17;0.70;;;8.60;99.90;;;;;;5045343;28;20048;-60
2023/05/08 11:38:19;;;;;;;3.40;0.77;;;8.60;99.90;;;;;;5029846;28;20024;-61
2023/05/08 11:40:48;;;;;;;1.27;0.70;;;8.50;99.90;;;;;;5040127;28;20403;-60
2023/05/08 11:43:30;;;;;;;3.03;0.85;;;8.60;99.90;;;;;;5039834;28;20038;-62
2023/05/08 11:46:03;;;;;;;4.60;0.95;;;8.70;99.90;;;;;;5026410;28;20112;-61
2023/05/08 11:48:31;;;;;;;6.32;0.80;;;8.80;99.90;;;;;;5026576;28;20068;-62
2023/05/08 11:51:02;;;;;;;3.28;0.85;;;8.70;99.90;;;;;;5032643;28;20029;-60
2023/05/08 11:53:31;;;;;;;3.25;1.00;;;8.80;99.90;;;;;;5026412;28;20071;-60
2023/05/08 11:55:59;;;;;;;3.97;0.80;;;8.70;99.90;;;;;;5020574;28;20154;-60
2023/05/08 11:58:27;;;;;;;2.17;1.08;;;8.70;99.90;;;;;;5041953;28;20040;-61
2023/05/08 12:00:54;;;;;;;1.20;0.70;;;8.70;99.90;;;;;;5038401;28;20554;-60
2023/05/08 12:03:26;;;;;;;1.23;0.70;;;8.60;99.90;;;;;;5043337;28;20578;-62
2023/05/08 12:05:57;;;;;;;0.90;0.60;;;8.60;99.90;;;;;;5037805;28;20041;-60
2023/05/08 12:08:25;;;;;;;1.25;0.63;;;8.50;99.90;;;;;;5025972;28;20387;-61
2023/05/08 12:10:57;;;;;;;1.00;0.60;;;8.40;99.90;;;;;;5027523;28;20029;-60
2023/05/08 12:13:27;;;;;;;2.17;0.60;;;8.30;99.90;;;;;;5040292;28;20020;-60
2023/05/08 12:15:56;;;;;;;3.97;0.80;;;8.30;99.90;;;;;;5045705;28;20037;-60
2023/05/08 12:18:26;;;;;;;1.85;0.70;;;8.30;99.90;;;;;;5037805;28;20030;-61
2023/05/08 12:20:59;;;;;;;1.45;0.60;;;8.30;99.90;;;;;;5046354;28;20033;-60
2023/05/08 12:23:29;;;;;;;2.13;0.70;;;8.30;99.90;;;;;;5029056;28;20448;-60
2023/05/08 12:26:01;;;;;;;2.10;0.70;;;8.30;99.90;;;;;;5051358;28;20393;-50
2023/05/08 12:28:31;;;;;;;1.70;0.70;;;8.30;99.90;;;;;;5017855;28;20053;-60
2023/05/08 12:30:59;;;;;;;5.20;0.98;;;8.40;99.90;;;;;;5038666;28;20490;-60
2023/05/08 12:33:27;;;;;;;4.32;1.10;;;8.60;99.90;;;;;;5044043;28;20128;-60
2023/05/08 12:35:58;;;;;;;3.55;0.77;;;8.60;99.90;;;;;;5048963;28;20024;-60
2023/05/08 12:38:29;;;;;;;6.00;0.93;;;8.60;99.90;;;;;;5050502;28;20044;-60
2023/05/08 12:40:56;;;;;;;2.63;0.90;;;8.60;99.90;;;;;;5051774;28;20086;-60
2023/05/08 12:43:34;;;;;;;3.72;0.65;;;8.60;99.90;;;;;;5036797;28;20033;-60
2023/05/08 12:46:03;;;;;;;3.22;1.00;;;8.50;99.90;;;;;;5036671;28;20498;-60
2023/05/08 12:48:31;;;;;;;9.55;1.42;;;8.60;99.90;;;;;;5052664;28;20052;-60
2023/05/08 12:51:04;;;;;;;6.32;1.13;;;8.60;99.90;;;;;;5030189;28;20606;-60
2023/05/08 12:53:32;;;;;;;7.90;1.58;;;8.60;99.90;;;;;;5052395;28;20032;-60
2023/05/08 12:56:04;;;;;;;9.32;2.00;;;8.60;99.90;;;;;;5047780;28;20090;-60
2023/05/08 12:58:33;;;;;;;8.38;2.00;;;8.50;99.90;;;;;;5032773;28;20036;-60
2023/05/08 13:01:12;;;;;;;5.07;1.02;;;8.40;99.90;;;;;;5048760;28;20431;-60
2023/05/08 13:03:40;;;;;;;7.38;1.23;;;8.20;99.90;;;;;;5038799;28;20029;-59
2023/05/08 13:06:18;;;;;;;5.20;1.60;;;8.10;99.90;;;;;;5027055;28;20048;-60
2023/05/08 13:08:52;;;;;;;8.63;1.50;;;8.00;99.90;;;;;;5047822;28;20021;-60
2023/05/08 13:11:33;;;;;;;7.50;1.30;;;7.90;99.90;;;;;;5032413;28;20029;-60